Time;durP1;ratioP1;P1;durP2;ratioP2;P2;SDS_P1;SDS_P2;PMS_P1;PMS_P2;Temp;Humidity;BMP_temperature;BMP_pressure;BME280_temperature;BME280_humidity;BME280_pressure;Samples;Min_cycle;Max_cycle;Signal;HPM_P1;HPM_P2
2021/04/01 00:01:33;;;;;;;1.40;0.20;;;14.90;72.80;;;;;;5086882;28;20273;-61
2021/04/01 00:03:59;;;;;;;1.40;0.20;;;14.80;73.30;;;;;;5096040;28;20203;-61
2021/04/01 00:06:24;;;;;;;1.40;0.20;;;14.70;73.80;;;;;;5085581;28;20267;-61
2021/04/01 00:08:50;;;;;;;1.40;0.20;;;14.60;74.50;;;;;;5089399;28;20175;-61
2021/04/01 00:11:16;;;;;;;1.40;0.20;;;14.60;73.80;;;;;;5092075;28;20643;-61
2021/04/01 00:13:41;;;;;;;1.40;0.20;;;14.60;73.90;;;;;;5094047;28;20261;-61
2021/04/01 00:16:07;;;;;;;1.40;0.20;;;14.60;74.30;;;;;;5092942;28;20181;-61
2021/04/01 00:18:32;;;;;;;1.40;0.20;;;14.60;74.40;;;;;;5088821;28;20678;-61
2021/04/01 00:20:58;;;;;;;1.40;0.20;;;14.60;74.90;;;;;;5087070;28;20211;-61
2021/04/01 00:23:24;;;;;;;1.40;0.20;;;14.50;74.80;;;;;;5091477;28;21565;-61
2021/04/01 00:25:50;;;;;;;1.40;0.20;;;14.50;75.80;;;;;;5101241;28;20309;-61
2021/04/01 00:28:16;;;;;;;1.40;0.20;;;14.50;76.80;;;;;;5093215;28;20516;-60
2021/04/01 00:30:41;;;;;;;2.10;0.50;;;14.40;76.90;;;;;;5098171;28;20643;-60
2021/04/01 00:33:07;;;;;;;1.47;0.20;;;14.30;76.90;;;;;;5094784;28;20214;-61
2021/04/01 00:35:32;;;;;;;4.03;2.60;;;14.30;76.50;;;;;;5088801;28;20203;-61
2021/04/01 00:37:58;;;;;;;1.47;0.20;;;14.40;76.70;;;;;;5096377;28;20192;-62
2021/04/01 00:40:25;;;;;;;1.40;0.20;;;14.40;74.10;;;;;;5092585;28;20200;-61
2021/04/01 00:42:51;;;;;;;1.43;0.20;;;14.50;75.40;;;;;;5087195;28;20486;-61
2021/04/01 00:45:17;;;;;;;1.43;0.20;;;14.50;73.10;;;;;;5092002;28;20535;-61
2021/04/01 00:47:45;;;;;;;1.43;0.30;;;14.60;72.50;;;;;;5092230;28;20452;-61
2021/04/01 00:50:20;;;;;;;1.47;0.20;;;14.70;72.30;;;;;;5096198;28;20450;-61
2021/04/01 00:52:45;;;;;;;1.40;0.20;;;14.60;73.60;;;;;;5094085;28;20473;-61
2021/04/01 00:55:12;;;;;;;1.50;0.40;;;14.50;73.70;;;;;;5090194;28;20438;-61
2021/04/01 00:57:40;;;;;;;1.40;0.20;;;14.40;73.90;;;;;;5099306;28;20242;-64
2021/04/01 01:00:08;;;;;;;1.40;0.20;;;14.30;74.20;;;;;;5106626;28;20437;-61
2021/04/01 01:02:34;;;;;;;1.40;0.20;;;14.30;74.60;;;;;;5111931;28;20498;-65
2021/04/01 01:05:00;;;;;;;1.40;0.20;;;14.20;75.60;;;;;;5101700;28;20451;-61
2021/04/01 01:07:26;;;;;;;1.40;0.20;;;14.20;75.40;;;;;;5114097;28;20447;-61
2021/04/01 01:09:52;;;;;;;1.43;0.20;;;14.20;76.10;;;;;;5107603;28;20522;-61
2021/04/01 01:12:17;;;;;;;35.50;32.57;;;14.10;76.10;;;;;;5104244;28;20215;-61
2021/04/01 01:14:43;;;;;;;1.40;0.20;;;14.10;76.80;;;;;;5113823;28;20266;-61
2021/04/01 01:17:08;;;;;;;1.50;0.20;;;14.10;77.30;;;;;;5097756;28;20219;-61
2021/04/01 01:19:37;;;;;;;1.50;0.20;;;14.00;77.90;;;;;;5107433;28;20211;-61
2021/04/01 01:22:08;;;;;;;1.40;0.20;;;14.00;78.50;;;;;;5099830;28;20215;-61
2021/04/01 01:24:36;;;;;;;1.40;0.20;;;13.90;79.10;;;;;;5093578;28;20422;-64
2021/04/01 01:27:05;;;;;;;1.47;0.20;;;13.90;79.30;;;;;;5105244;28;20524;-61
2021/04/01 01:29:32;;;;;;;1.47;0.20;;;13.90;80.00;;;;;;5104197;28;20792;-61
2021/04/01 01:31:58;;;;;;;1.40;0.20;;;13.80;80.70;;;;;;5086747;28;20892;-61
2021/04/01 01:34:23;;;;;;;1.47;0.20;;;13.80;80.80;;;;;;5100539;28;20437;-61
2021/04/01 01:36:50;;;;;;;1.40;0.20;;;13.70;81.20;;;;;;5107713;28;20179;-61
2021/04/01 01:39:15;;;;;;;1.40;0.20;;;13.70;82.10;;;;;;5106490;28;20184;-66
2021/04/01 01:41:41;;;;;;;1.40;0.20;;;13.70;82.80;;;;;;5105463;28;20492;-62
2021/04/01 01:44:06;;;;;;;1.50;0.27;;;13.70;83.30;;;;;;5106759;28;20183;-61
2021/04/01 01:46:32;;;;;;;1.47;0.20;;;13.70;82.90;;;;;;5104759;28;20185;-62
2021/04/01 01:48:58;;;;;;;1.50;0.30;;;13.70;82.90;;;;;;5104465;28;20203;-61
2021/04/01 01:51:24;;;;;;;1.43;0.20;;;13.70;81.80;;;;;;5095204;28;20196;-61
2021/04/01 01:53:50;;;;;;;1.50;0.20;;;13.70;82.70;;;;;;5097167;28;20806;-61
2021/04/01 01:56:24;;;;;;;1.50;0.20;;;13.80;82.50;;;;;;5095922;28;20428;-61
2021/04/01 01:58:51;;;;;;;1.43;0.20;;;13.80;82.70;;;;;;5086639;28;20429;-61
2021/04/01 02:01:19;;;;;;;1.40;0.20;;;13.80;81.80;;;;;;5097660;28;20462;-61
2021/04/01 02:03:44;;;;;;;1.40;0.20;;;13.80;81.30;;;;;;5094816;28;20467;-61
2021/04/01 02:06:12;;;;;;;1.50;0.20;;;13.80;80.90;;;;;;5092061;28;20872;-60
2021/04/01 02:08:37;;;;;;;1.43;0.20;;;13.80;78.90;;;;;;5102129;28;20188;-61
2021/04/01 02:11:03;;;;;;;1.47;0.20;;;13.90;78.80;;;;;;5089128;28;20442;-60
2021/04/01 02:13:28;;;;;;;1.47;0.30;;;13.90;77.30;;;;;;5084377;28;20744;-60
2021/04/01 02:15:55;;;;;;;1.43;0.30;;;14.00;76.60;;;;;;5091320;28;20196;-61
2021/04/01 02:18:24;;;;;;;1.40;0.20;;;14.10;75.50;;;;;;5093747;28;20635;-64
2021/04/01 02:20:51;;;;;;;1.40;0.20;;;14.10;75.00;;;;;;5089858;28;20795;-61
2021/04/01 02:23:22;;;;;;;1.40;0.20;;;14.20;75.60;;;;;;5099643;28;20988;-60
2021/04/01 02:25:50;;;;;;;1.60;0.40;;;14.20;74.40;;;;;;5089889;28;20436;-60
2021/04/01 02:28:18;;;;;;;1.47;0.20;;;14.30;74.00;;;;;;5088015;28;20447;-60
2021/04/01 02:30:45;;;;;;;1.40;0.20;;;14.30;73.70;;;;;;5098640;28;21199;-61
2021/04/01 02:33:11;;;;;;;1.47;0.20;;;14.30;74.20;;;;;;5091909;28;20463;-61
2021/04/01 02:35:37;;;;;;;1.40;0.20;;;14.30;72.80;;;;;;5092052;28;20427;-61
2021/04/01 02:38:04;;;;;;;1.60;0.57;;;14.40;72.40;;;;;;5093366;28;20430;-60
2021/04/01 02:40:30;;;;;;;1.40;0.20;;;14.40;72.10;;;;;;5091081;28;20442;-60
2021/04/01 02:42:57;;;;;;;1.50;0.30;;;14.40;72.20;;;;;;5082069;28;20457;-61
2021/04/01 02:45:23;;;;;;;1.40;0.20;;;14.40;72.00;;;;;;5095155;28;20444;-61
2021/04/01 02:47:48;;;;;;;1.43;0.20;;;14.40;72.20;;;;;;5090277;28;20532;-60
2021/04/01 02:50:14;;;;;;;1.40;0.20;;;14.40;72.40;;;;;;5088039;28;20203;-61
2021/04/01 02:52:40;;;;;;;1.40;0.20;;;14.40;72.80;;;;;;5092356;28;20308;-61
2021/04/01 02:55:09;;;;;;;1.40;0.20;;;14.30;72.40;;;;;;5092956;28;20523;-62
2021/04/01 02:57:34;;;;;;;1.40;0.20;;;14.30;72.60;;;;;;5096114;28;20556;-62
2021/04/01 03:00:05;;;;;;;1.40;0.20;;;14.30;72.70;;;;;;5094834;28;20432;-61
2021/04/01 03:02:30;;;;;;;1.70;0.63;;;14.30;72.70;;;;;;5086947;28;20828;-62
2021/04/01 03:04:56;;;;;;;1.40;0.20;;;14.20;73.00;;;;;;5092463;28;20441;-61
2021/04/01 03:07:21;;;;;;;1.43;0.20;;;14.20;73.50;;;;;;5093854;28;20196;-62
2021/04/01 03:09:47;;;;;;;1.43;0.20;;;14.20;74.00;;;;;;5088858;28;20195;-61
2021/04/01 03:12:12;;;;;;;1.40;0.20;;;14.10;74.80;;;;;;5099020;28;20208;-61
2021/04/01 03:14:38;;;;;;;1.40;0.20;;;14.00;75.40;;;;;;5087215;28;20303;-61
2021/04/01 03:17:04;;;;;;;1.40;0.20;;;14.00;76.00;;;;;;5091793;28;20192;-61
2021/04/01 03:19:29;;;;;;;1.40;0.20;;;13.90;76.70;;;;;;5092082;28;20308;-62
2021/04/01 03:21:55;;;;;;;1.40;0.20;;;13.80;77.00;;;;;;5090704;28;20233;-61
2021/04/01 03:24:21;;;;;;;1.40;0.30;;;13.70;77.40;;;;;;5093022;28;20195;-62
2021/04/01 03:26:46;;;;;;;1.50;0.20;;;13.70;76.80;;;;;;5093601;28;20222;-62
2021/04/01 03:29:12;;;;;;;1.40;0.20;;;13.70;76.70;;;;;;5088376;28;20184;-60
2021/04/01 03:31:38;;;;;;;1.40;0.20;;;13.80;76.40;;;;;;5097771;28;20843;-61
2021/04/01 03:34:03;;;;;;;1.43;0.20;;;13.80;76.20;;;;;;5086834;28;20426;-60
2021/04/01 03:36:29;;;;;;;20.30;1.60;;;13.70;76.30;;;;;;5084286;28;20267;-60
2021/04/01 03:38:55;;;;;;;1.40;0.20;;;13.80;76.00;;;;;;5095701;28;20196;-61
2021/04/01 03:41:21;;;;;;;1.80;0.80;;;13.80;76.20;;;;;;5104336;28;20566;-61
2021/04/01 03:43:47;;;;;;;1.70;0.70;;;13.70;75.80;;;;;;5085768;28;20423;-61
2021/04/01 03:46:13;;;;;;;1.40;0.20;;;13.70;75.70;;;;;;5088526;28;20659;-61
2021/04/01 03:48:39;;;;;;;1.60;0.50;;;13.70;76.10;;;;;;5090085;28;20188;-61
2021/04/01 03:51:05;;;;;;;1.43;0.20;;;13.80;76.40;;;;;;5088246;28;20964;-61
2021/04/01 03:53:31;;;;;;;4.13;1.73;;;13.80;75.90;;;;;;5088612;28;20541;-61
2021/04/01 03:55:56;;;;;;;1.40;0.20;;;13.80;75.60;;;;;;5095959;28;20838;-62
2021/04/01 04:01:08;;;;;;;1.50;0.37;;;13.80;75.70;;;;;;5097097;28;20562;-61
2021/04/01 04:03:43;;;;;;;1.50;0.20;;;13.80;75.50;;;;;;5092408;28;20464;-61
2021/04/01 04:11:46;;;;;;;1.40;0.20;;;13.90;75.80;;;;;;5091329;28;20466;-61
2021/04/01 04:14:17;;;;;;;3.13;2.30;;;13.90;76.00;;;;;;5090426;28;20429;-61
2021/04/01 04:16:42;;;;;;;1.40;0.20;;;13.80;76.20;;;;;;5099273;28;20447;-62
2021/04/01 04:19:08;;;;;;;1.40;0.20;;;13.80;76.70;;;;;;5087180;28;20873;-61
2021/04/01 04:21:34;;;;;;;1.50;0.20;;;13.80;76.20;;;;;;5081085;28;20204;-61
2021/04/01 04:24:01;;;;;;;1.40;0.20;;;13.80;76.50;;;;;;5094948;28;20431;-61
2021/04/01 04:26:26;;;;;;;1.40;0.20;;;13.80;76.40;;;;;;5082451;28;20289;-61
2021/04/01 04:28:52;;;;;;;1.40;0.20;;;13.80;76.30;;;;;;5091982;28;20939;-61
2021/04/01 04:31:17;;;;;;;1.40;0.20;;;13.80;76.80;;;;;;5083624;28;20190;-61
2021/04/01 04:33:43;;;;;;;2.63;0.83;;;13.80;77.00;;;;;;5088750;28;20207;-61
2021/04/01 04:36:09;;;;;;;1.40;0.20;;;13.70;76.90;;;;;;5084108;28;20185;-61
2021/04/01 04:38:35;;;;;;;1.40;0.20;;;13.70;77.60;;;;;;5092596;28;20186;-61
2021/04/01 04:41:00;;;;;;;1.43;0.20;;;13.70;77.90;;;;;;5085875;28;20231;-61
2021/04/01 04:43:28;;;;;;;1.60;0.40;;;13.60;78.40;;;;;;5086753;28;20547;-61
2021/04/01 04:45:55;;;;;;;2.93;1.50;;;13.50;79.00;;;;;;5092594;28;20337;-61
2021/04/01 04:48:21;;;;;;;3.00;1.20;;;13.40;78.80;;;;;;5089157;28;20515;-62
2021/04/01 04:50:46;;;;;;;2.63;1.30;;;13.40;79.30;;;;;;5090947;28;20435;-61
2021/04/01 04:53:13;;;;;;;3.20;2.60;;;13.40;79.60;;;;;;5097376;28;20991;-62
2021/04/01 04:55:40;;;;;;;1.50;0.30;;;13.40;79.60;;;;;;5088268;28;20219;-61
2021/04/01 04:58:20;;;;;;;3.30;1.03;;;13.30;80.00;;;;;;5095370;28;20435;-61
2021/04/01 05:01:05;;;;;;;1.60;0.43;;;13.30;80.40;;;;;;5081208;28;20418;-61
2021/04/01 05:09:00;;;;;;;1.47;0.20;;;13.10;82.80;;;;;;5089719;28;20433;-61
2021/04/01 05:11:25;;;;;;;1.50;0.20;;;13.10;83.30;;;;;;5086239;28;20433;-61
2021/04/01 05:13:51;;;;;;;1.50;0.20;;;13.10;83.10;;;;;;5088944;28;20233;-61
2021/04/01 05:16:17;;;;;;;1.50;0.40;;;13.10;83.40;;;;;;5070486;28;20562;-61
2021/04/01 05:18:43;;;;;;;1.47;0.20;;;13.10;84.00;;;;;;5092193;28;20714;-61
2021/04/01 05:21:13;;;;;;;2.60;1.73;;;13.00;84.60;;;;;;5093011;28;20274;-61
2021/04/01 05:23:43;;;;;;;2.50;1.67;;;13.00;85.10;;;;;;5098773;28;20477;-61
2021/04/01 05:28:53;;;;;;;1.60;0.47;;;12.90;85.90;;;;;;5090769;28;20829;-61
2021/04/01 05:31:20;;;;;;;9.47;2.73;;;12.90;87.10;;;;;;5096393;28;20951;-61
2021/04/01 05:33:48;;;;;;;1.50;0.30;;;12.90;87.00;;;;;;5094833;28;20507;-61
2021/04/01 05:36:20;;;;;;;2.17;1.20;;;12.90;87.20;;;;;;5095541;28;20442;-61
2021/04/01 05:38:46;;;;;;;1.50;0.20;;;12.90;87.30;;;;;;5099355;28;20429;-60
2021/04/01 05:41:11;;;;;;;1.43;0.20;;;12.90;87.70;;;;;;5091069;28;20468;-61
2021/04/01 05:43:41;;;;;;;1.50;0.20;;;12.90;87.80;;;;;;5091278;28;20197;-61
2021/04/01 06:04:40;;;;;;;2.77;1.63;;;13.00;87.90;;;;;;5087913;28;20449;-60
2021/04/01 06:07:16;;;;;;;1.40;0.20;;;13.00;88.20;;;;;;5093126;28;20416;-61
2021/04/01 06:09:45;;;;;;;1.40;0.20;;;13.10;87.90;;;;;;5100995;28;20468;-60
2021/04/01 06:12:11;;;;;;;1.87;0.90;;;13.10;88.80;;;;;;5100927;28;20460;-60
2021/04/01 06:14:55;;;;;;;10.27;3.30;;;13.10;88.30;;;;;;5086503;28;20514;-60
2021/04/01 06:17:24;;;;;;;2.50;1.60;;;13.10;88.10;;;;;;5087716;28;20897;-61
2021/04/01 06:19:54;;;;;;;1.40;0.20;;;13.10;88.00;;;;;;5102687;28;20453;-61
2021/04/01 06:22:22;;;;;;;5.40;1.60;;;13.10;88.30;;;;;;5087997;28;20469;-61
2021/04/01 06:24:49;;;;;;;1.50;0.20;;;13.10;88.40;;;;;;5101098;28;20469;-60
2021/04/01 06:27:22;;;;;;;1.50;0.40;;;13.10;88.50;;;;;;5090165;28;20956;-60
2021/04/01 06:32:41;;;;;;;1.63;0.40;;;13.10;88.50;;;;;;5090089;28;20454;-60
2021/04/01 06:35:32;;;;;;;2.87;1.77;;;13.10;88.60;;;;;;5090878;28;20465;-60
2021/04/01 06:40:46;;;;;;;4.23;3.93;;;13.10;88.80;;;;;;5090492;28;21015;-59
2021/04/01 06:43:17;;;;;;;2.20;0.90;;;13.10;89.50;;;;;;5093171;28;20476;-61
2021/04/01 06:46:08;;;;;;;4.83;2.20;;;13.20;89.30;;;;;;5091468;28;20425;-61
2021/04/01 06:49:37;;;;;;;2.77;1.80;;;13.20;89.30;;;;;;5085105;28;20434;-62
2021/04/01 06:59:37;;;;;;;1.47;0.20;;;13.30;88.80;;;;;;5090963;28;20431;-61
2021/04/01 07:04:46;;;;;;;1.40;0.20;;;13.40;89.00;;;;;;5088684;28;20433;-61
2021/04/01 07:07:16;;;;;;;1.50;0.40;;;13.40;89.20;;;;;;5092697;28;20432;-61
2021/04/01 07:12:39;;;;;;;1.50;0.20;;;13.40;89.00;;;;;;5104072;28;20969;-61
2021/04/01 07:15:13;;;;;;;1.47;0.20;;;13.50;89.00;;;;;;5087634;28;21009;-61
2021/04/01 07:17:41;;;;;;;2.80;0.97;;;13.50;89.60;;;;;;5097151;28;20449;-61
2021/04/01 07:31:14;;;;;;;2.80;1.40;;;13.70;89.00;;;;;;5096223;28;20445;-61
2021/04/01 07:47:32;;;;;;;1.50;0.50;;;14.00;88.10;;;;;;5094741;28;20458;-63
2021/04/01 07:50:12;;;;;;;1.50;0.20;;;14.10;88.20;;;;;;5095506;28;20492;-61
2021/04/01 07:52:39;;;;;;;2.20;1.17;;;14.20;87.90;;;;;;5088345;28;20532;-61
2021/04/01 07:58:19;;;;;;;2.30;1.40;;;14.40;87.10;;;;;;5095068;28;20457;-62
2021/04/01 08:06:06;;;;;;;1.97;0.87;;;14.70;86.70;;;;;;5096256;28;20438;-62
2021/04/01 08:08:37;;;;;;;9.33;2.70;;;14.80;86.10;;;;;;5086948;28;20442;-60
2021/04/01 08:11:06;;;;;;;1.43;0.20;;;14.80;85.80;;;;;;5087652;28;20203;-62
2021/04/01 08:13:34;;;;;;;3.53;2.00;;;14.90;86.10;;;;;;5092347;28;20458;-60
2021/04/01 08:16:08;;;;;;;1.50;0.20;;;15.00;85.80;;;;;;5087304;28;20457;-61
2021/04/01 08:18:36;;;;;;;2.47;1.60;;;15.00;86.30;;;;;;5084447;28;20521;-61
2021/04/01 08:21:06;;;;;;;3.50;3.20;;;15.10;86.30;;;;;;5095534;28;20473;-61
2021/04/01 08:23:35;;;;;;;1.50;0.20;;;15.10;86.00;;;;;;5095182;28;20456;-61
2021/04/01 08:26:18;;;;;;;1.47;0.20;;;15.10;86.00;;;;;;5088931;28;20506;-61
2021/04/01 08:31:51;;;;;;;1.50;0.30;;;15.30;86.10;;;;;;5089480;28;20444;-61
2021/04/01 08:36:52;;;;;;;1.50;0.40;;;15.50;86.60;;;;;;5093047;28;20977;-60
2021/04/01 08:39:20;;;;;;;1.40;0.20;;;15.60;86.70;;;;;;5092153;28;20453;-61
2021/04/01 08:42:06;;;;;;;1.50;0.20;;;15.70;85.60;;;;;;5072577;28;20469;-60
2021/04/01 08:44:56;;;;;;;1.43;0.20;;;15.80;85.70;;;;;;5090235;28;20525;-60
2021/04/01 08:47:30;;;;;;;1.50;0.20;;;15.90;85.00;;;;;;5084755;28;20851;-62
2021/04/01 08:50:27;;;;;;;1.50;0.20;;;16.10;84.30;;;;;;5092421;28;20457;-61
2021/04/01 08:53:17;;;;;;;1.43;0.20;;;16.20;84.20;;;;;;5085686;28;20475;-62
2021/04/01 08:55:55;;;;;;;1.50;0.20;;;16.40;83.40;;;;;;5095653;28;20951;-61
2021/04/01 08:58:41;;;;;;;1.47;0.20;;;16.50;82.50;;;;;;5090323;28;20510;-60
2021/04/01 09:01:19;;;;;;;1.40;0.20;;;16.60;82.20;;;;;;5084833;28;20493;-60
2021/04/01 09:03:49;;;;;;;1.50;0.20;;;16.70;80.60;;;;;;5089681;28;20477;-60
2021/04/01 09:06:19;;;;;;;1.40;0.20;;;16.80;79.90;;;;;;5092854;28;20489;-62
2021/04/01 09:08:52;;;;;;;3.03;0.97;;;16.90;80.10;;;;;;5087272;28;20511;-61
2021/04/01 09:11:27;;;;;;;5.07;0.67;;;16.90;79.70;;;;;;5094943;28;20438;-61
2021/04/01 09:13:55;;;;;;;4.40;2.13;;;17.00;79.10;;;;;;5097883;28;20503;-61
2021/04/01 09:16:27;;;;;;;2.90;1.43;;;17.00;78.20;;;;;;5091971;28;20462;-63
2021/04/01 09:19:02;;;;;;;1.43;0.20;;;17.10;77.60;;;;;;5098242;28;20443;-60
2021/04/01 09:21:37;;;;;;;1.43;0.20;;;17.10;78.10;;;;;;5103702;28;20462;-61
2021/04/01 09:24:09;;;;;;;1.50;0.30;;;17.20;78.30;;;;;;5103159;28;20461;-60
2021/04/01 09:26:35;;;;;;;1.50;0.20;;;17.20;78.20;;;;;;5099796;28;20443;-62
2021/04/01 09:29:04;;;;;;;1.40;0.20;;;17.20;78.80;;;;;;5104756;28;20445;-61
2021/04/01 09:31:43;;;;;;;1.80;0.97;;;17.20;78.70;;;;;;5094530;28;20456;-63
2021/04/01 09:34:11;;;;;;;7.47;3.20;;;17.20;79.10;;;;;;5094388;28;20531;-62
2021/04/01 09:36:42;;;;;;;1.50;0.30;;;17.10;78.70;;;;;;5104185;28;20539;-62
2021/04/01 09:39:27;;;;;;;3.70;2.37;;;17.10;78.20;;;;;;5098264;28;20467;-67
2021/04/01 09:42:15;;;;;;;3.77;2.77;;;17.10;78.30;;;;;;5103730;28;20500;-63
2021/04/01 09:44:57;;;;;;;1.40;0.20;;;17.10;77.90;;;;;;5106477;28;20527;-62
2021/04/01 09:47:42;;;;;;;3.00;1.60;;;17.20;77.90;;;;;;5110818;28;20996;-65
2021/04/01 09:50:11;;;;;;;5.13;2.27;;;17.20;77.70;;;;;;5096403;28;20458;-62
2021/04/01 09:52:39;;;;;;;1.50;0.20;;;17.30;78.00;;;;;;5093485;28;20544;-62
2021/04/01 09:55:15;;;;;;;1.87;0.60;;;17.40;76.90;;;;;;5102108;28;20453;-62
2021/04/01 09:57:43;;;;;;;4.70;3.73;;;17.50;76.30;;;;;;5095828;28;20976;-61
2021/04/01 10:03:12;;;;;;;2.73;1.07;;;17.60;74.30;;;;;;5100902;28;20476;-63
2021/04/01 10:05:40;;;;;;;5.43;4.17;;;17.70;74.10;;;;;;5092323;28;20530;-61
2021/04/01 10:08:08;;;;;;;2.13;1.73;;;17.70;73.40;;;;;;5091580;28;20430;-61
2021/04/01 10:10:37;;;;;;;9.73;2.93;;;17.80;73.70;;;;;;5102172;28;20445;-60
2021/04/01 10:13:21;;;;;;;1.47;0.20;;;17.90;72.70;;;;;;5094522;28;20803;-61
2021/04/01 10:15:47;;;;;;;1.87;1.13;;;17.90;72.80;;;;;;5087588;28;20445;-61
2021/04/01 10:18:19;;;;;;;4.47;3.80;;;18.00;72.60;;;;;;5094202;28;20456;-61
2021/04/01 10:20:50;;;;;;;1.43;0.20;;;18.10;72.50;;;;;;5068752;28;20433;-62
2021/04/01 10:23:17;;;;;;;1.40;0.20;;;18.10;71.80;;;;;;5090037;28;20494;-61
2021/04/01 10:25:48;;;;;;;3.10;2.53;;;18.20;71.70;;;;;;5075143;28;20453;-62
2021/04/01 10:28:27;;;;;;;1.43;0.20;;;18.20;71.60;;;;;;5085828;28;20482;-63
2021/04/01 10:30:55;;;;;;;4.83;2.20;;;18.30;71.10;;;;;;5090280;28;20486;-63
2021/04/01 10:33:34;;;;;;;1.70;0.83;;;18.40;70.40;;;;;;5091976;28;20450;-63
2021/04/01 10:36:03;;;;;;;1.43;0.20;;;18.40;70.00;;;;;;5092011;28;20443;-62
2021/04/01 10:38:29;;;;;;;1.47;0.30;;;18.40;70.50;;;;;;5085904;28;20521;-62
2021/04/01 10:40:59;;;;;;;1.43;0.20;;;18.50;70.90;;;;;;5092471;28;20586;-64
2021/04/01 10:43:32;;;;;;;1.50;0.40;;;18.60;70.00;;;;;;5092495;28;20658;-62
2021/04/01 10:46:00;;;;;;;1.50;0.40;;;18.70;69.50;;;;;;5091558;28;20527;-62
2021/04/01 10:48:30;;;;;;;3.47;3.17;;;18.80;69.50;;;;;;5092859;28;20439;-62
2021/04/01 10:51:02;;;;;;;10.33;9.23;;;18.80;69.40;;;;;;5093081;28;20462;-62
2021/04/01 10:53:28;;;;;;;2.90;2.63;;;18.80;68.80;;;;;;5088931;28;20464;-62
2021/04/01 10:56:02;;;;;;;1.47;0.20;;;19.00;67.20;;;;;;5094550;28;20438;-66
2021/04/01 10:58:28;;;;;;;2.63;2.33;;;19.00;66.90;;;;;;5094432;28;20926;-62
2021/04/01 11:00:55;;;;;;;13.93;13.00;;;19.10;67.10;;;;;;5091479;28;20434;-63
2021/04/01 11:03:26;;;;;;;4.00;3.70;;;19.10;67.30;;;;;;5086756;28;20218;-64
2021/04/01 11:05:52;;;;;;;3.10;2.83;;;19.20;66.60;;;;;;5095775;28;20441;-64
2021/04/01 11:08:20;;;;;;;9.47;6.37;;;19.30;66.50;;;;;;5096297;28;20461;-62
2021/04/01 11:10:55;;;;;;;1.53;0.43;;;19.40;66.20;;;;;;5090574;28;20810;-62
2021/04/01 11:13:22;;;;;;;5.57;4.97;;;19.50;65.60;;;;;;5096286;28;21010;-62
2021/04/01 11:15:51;;;;;;;1.47;0.20;;;19.60;65.20;;;;;;5099802;28;20448;-62
2021/04/01 11:18:18;;;;;;;1.80;1.43;;;19.60;64.10;;;;;;5094387;28;20439;-62
2021/04/01 11:20:51;;;;;;;3.97;3.67;;;19.50;64.30;;;;;;5096822;28;20438;-64
2021/04/01 11:23:20;;;;;;;2.07;1.10;;;19.60;64.40;;;;;;5088413;28;20481;-61
2021/04/01 11:25:52;;;;;;;2.53;0.90;;;19.70;64.60;;;;;;5094412;28;20930;-64
2021/04/01 11:28:18;;;;;;;3.20;0.50;;;19.80;63.70;;;;;;5097244;28;20453;-63
2021/04/01 11:30:53;;;;;;;1.40;0.20;;;19.80;63.30;;;;;;5098751;28;20434;-64
2021/04/01 11:33:21;;;;;;;1.43;0.20;;;19.90;62.80;;;;;;5093636;28;20969;-63
2021/04/01 11:35:58;;;;;;;1.47;0.20;;;19.90;61.20;;;;;;5078109;28;20441;-63
2021/04/01 11:38:25;;;;;;;1.90;1.13;;;19.90;60.80;;;;;;5094198;28;20523;-66
2021/04/01 11:41:01;;;;;;;1.43;0.20;;;19.90;60.70;;;;;;5088431;28;20442;-65
2021/04/01 11:43:29;;;;;;;1.57;0.73;;;20.00;60.80;;;;;;5100836;28;20449;-63
2021/04/01 11:45:56;;;;;;;4.97;3.67;;;20.10;61.40;;;;;;5100795;28;20421;-64
2021/04/01 11:48:22;;;;;;;1.50;0.40;;;20.00;60.90;;;;;;5104847;28;20831;-63
2021/04/01 11:50:48;;;;;;;3.60;2.77;;;19.90;60.00;;;;;;5103475;28;20468;-63
2021/04/01 11:53:15;;;;;;;1.60;0.40;;;19.90;61.40;;;;;;5098572;28;20212;-64
2021/04/01 11:55:52;;;;;;;1.47;0.20;;;20.00;61.40;;;;;;5087737;28;20440;-61
2021/04/01 11:58:19;;;;;;;1.40;0.20;;;20.00;61.70;;;;;;5098452;28;20443;-65
2021/04/01 12:00:46;;;;;;;2.00;0.97;;;20.00;60.90;;;;;;5099318;28;20449;-61
2021/04/01 12:03:14;;;;;;;2.60;2.40;;;20.20;59.40;;;;;;5104899;28;20476;-62
2021/04/01 12:05:45;;;;;;;1.40;0.20;;;20.30;58.60;;;;;;5098786;28;20457;-62
2021/04/01 12:08:12;;;;;;;9.43;5.90;;;20.40;58.70;;;;;;5098001;28;20496;-61
2021/04/01 12:10:38;;;;;;;1.60;0.50;;;20.40;58.60;;;;;;5096199;28;20431;-61
2021/04/01 12:13:04;;;;;;;1.40;0.20;;;20.40;58.40;;;;;;5091426;28;20824;-61
2021/04/01 12:15:33;;;;;;;1.90;1.50;;;20.50;58.20;;;;;;5088104;28;20453;-61
2021/04/01 12:18:00;;;;;;;1.40;0.20;;;20.50;57.90;;;;;;5090694;28;20444;-61
2021/04/01 12:20:26;;;;;;;3.20;1.83;;;20.60;57.60;;;;;;5088717;28;20448;-61
2021/04/01 12:22:55;;;;;;;1.40;0.30;;;20.80;54.50;;;;;;5094238;28;20478;-61
2021/04/01 12:25:23;;;;;;;1.40;0.20;;;21.00;52.80;;;;;;5086882;28;20311;-60
2021/04/01 12:27:53;;;;;;;8.27;4.97;;;21.00;52.70;;;;;;5085757;28;20855;-62
2021/04/01 12:30:31;;;;;;;1.40;0.20;;;21.20;51.80;;;;;;5088119;28;20533;-62
2021/04/01 12:33:23;;;;;;;31.33;7.30;;;21.40;50.30;;;;;;5095938;28;20463;-61
2021/04/01 12:35:50;;;;;;;2.00;1.13;;;21.60;50.60;;;;;;5077634;28;20528;-61
2021/04/01 12:38:28;;;;;;;1.90;0.90;;;21.60;47.30;;;;;;5090245;28;20455;-62
2021/04/01 12:40:54;;;;;;;5.00;3.20;;;21.60;48.20;;;;;;5089322;28;20448;-62
2021/04/01 12:43:27;;;;;;;6.10;3.40;;;21.60;49.20;;;;;;5088671;28;20459;-62
2021/04/01 12:45:54;;;;;;;6.80;2.93;;;21.80;49.30;;;;;;5089785;28;20440;-61
2021/04/01 12:48:20;;;;;;;1.40;0.20;;;21.90;49.60;;;;;;5093361;28;20442;-62
2021/04/01 12:50:48;;;;;;;1.40;0.20;;;21.80;49.50;;;;;;5092452;28;20781;-61
2021/04/01 12:53:18;;;;;;;3.03;2.20;;;21.70;48.70;;;;;;5089038;28;20276;-61
2021/04/01 12:58:31;;;;;;;4.30;2.17;;;21.80;49.50;;;;;;5094805;28;20437;-61
2021/04/01 13:01:04;;;;;;;7.13;4.93;;;21.90;48.30;;;;;;5093520;28;20447;-61
2021/04/01 13:03:29;;;;;;;3.20;1.80;;;22.00;47.80;;;;;;5094855;28;20547;-63
2021/04/01 13:06:01;;;;;;;10.10;6.50;;;22.10;48.30;;;;;;5100948;28;20471;-61
2021/04/01 13:11:11;;;;;;;5.00;2.40;;;22.20;48.00;;;;;;5100115;28;20462;-61
2021/04/01 13:13:36;;;;;;;11.20;7.83;;;22.20;47.70;;;;;;5097108;28;20467;-60
2021/04/01 13:16:02;;;;;;;4.33;3.53;;;22.20;46.70;;;;;;5092893;28;20191;-60
2021/04/01 13:18:28;;;;;;;4.30;2.17;;;22.30;47.10;;;;;;5095856;28;20226;-60
2021/04/01 13:20:54;;;;;;;1.47;0.27;;;22.40;46.80;;;;;;5095423;28;20191;-61
2021/04/01 13:26:04;;;;;;;2.17;0.70;;;22.30;46.80;;;;;;5098529;28;20466;-62
2021/04/01 13:28:30;;;;;;;1.80;1.03;;;22.40;46.90;;;;;;5097155;28;20469;-62
2021/04/01 13:31:00;;;;;;;1.70;0.90;;;22.40;46.30;;;;;;5098800;28;20886;-62
2021/04/01 13:33:49;;;;;;;7.53;3.30;;;22.50;46.40;;;;;;5103063;28;20323;-61
2021/04/01 13:36:19;;;;;;;2.67;1.40;;;22.50;45.90;;;;;;5089060;28;20925;-60
2021/04/01 13:38:45;;;;;;;1.40;0.20;;;22.60;44.50;;;;;;5096355;28;20427;-62
2021/04/01 13:41:15;;;;;;;1.40;0.20;;;22.70;43.40;;;;;;5102778;28;20470;-62
2021/04/01 13:43:42;;;;;;;4.83;2.43;;;22.70;41.30;;;;;;5096138;28;20246;-63
2021/04/01 13:46:09;;;;;;;2.80;0.93;;;22.90;40.70;;;;;;5095777;28;20482;-63
2021/04/01 13:48:38;;;;;;;5.20;2.40;;;22.90;40.20;;;;;;5101100;28;20435;-62
2021/04/01 13:51:11;;;;;;;3.63;1.20;;;22.90;39.50;;;;;;5073921;28;20633;-62
2021/04/01 13:53:50;;;;;;;2.33;1.03;;;22.90;39.70;;;;;;5090920;28;20495;-62
2021/04/01 13:56:25;;;;;;;4.03;2.27;;;22.90;39.60;;;;;;5093662;28;20988;-62
2021/04/01 14:09:37;;;;;;;3.50;2.67;;;23.10;39.90;;;;;;5091217;28;20517;-61
2021/04/01 14:12:05;;;;;;;5.93;3.37;;;23.10;40.20;;;;;;5101448;28;20450;-61
2021/04/01 14:14:33;;;;;;;6.10;5.47;;;23.10;39.90;;;;;;5094949;28;20929;-62
2021/04/01 14:16:58;;;;;;;1.40;0.20;;;23.20;39.60;;;;;;5089542;28;20438;-62
2021/04/01 14:19:26;;;;;;;1.73;0.73;;;23.20;40.00;;;;;;5092081;28;20949;-62
2021/04/01 14:21:58;;;;;;;1.73;0.67;;;23.20;39.50;;;;;;5096484;28;20210;-62
2021/04/01 14:27:08;;;;;;;1.70;0.40;;;23.30;39.90;;;;;;5096292;28;20432;-62
2021/04/01 14:29:35;;;;;;;1.40;0.23;;;23.30;40.20;;;;;;5094179;28;20429;-61
2021/04/01 14:32:02;;;;;;;3.60;2.53;;;23.20;40.20;;;;;;5093482;28;20471;-61
2021/04/01 14:34:28;;;;;;;2.33;1.07;;;23.30;40.20;;;;;;5097540;28;20492;-61
2021/04/01 14:37:00;;;;;;;3.93;2.43;;;23.40;40.60;;;;;;5098911;28;20530;-61
2021/04/01 14:39:28;;;;;;;1.50;0.43;;;23.50;40.30;;;;;;5088685;28;20456;-62
2021/04/01 14:41:58;;;;;;;1.40;0.20;;;23.60;39.60;;;;;;5095247;28;20478;-61
2021/04/01 14:44:25;;;;;;;2.27;1.07;;;23.60;39.70;;;;;;5091338;28;20948;-61
2021/04/01 14:46:50;;;;;;;5.43;2.60;;;23.60;38.80;;;;;;5088720;28;20433;-62
2021/04/01 14:49:16;;;;;;;9.83;3.03;;;23.70;39.30;;;;;;5092721;28;20445;-61
2021/04/01 14:51:42;;;;;;;3.70;1.70;;;23.70;38.60;;;;;;5088783;28;20194;-61
2021/04/01 14:54:10;;;;;;;5.70;2.50;;;23.70;38.30;;;;;;5088057;28;20178;-62